ADDS METAR Data INFO
IDs: Format: Raw Decoded Include TAF

Data at: 1509 UTC 23 Oct 2017

KSLN 231453Z 31012KT 10SM CLR 16/06 A3010 RMK AO2 SLP190 T01560061 53038
KSLN 231353Z 31010KT 10SM CLR 12/04 A3005 RMK AO2 SLP176 T01220044
KSLN 231253Z 31010KT 10SM CLR 11/03 A3000 RMK AO2 SLP158 T01060033
KSLN 231153Z 29007KT 10SM CLR 09/03 A2998 RMK AO2 SLP149 T00890028 10122 20083 53008
KSLN 231053Z AUTO 22009KT 10SM CLR 11/03 A2993 RMK AO2 SLP129 T01060028
KSLN 230953Z AUTO 19004KT 10SM CLR 09/04 A2993 RMK AO2 SLP131 T00940044
KSLN 230853Z AUTO 17007KT 10SM CLR 08/05 A2995 RMK AO2 SLP139 T00830050 58017
KSLN 230753Z AUTO 19007KT 10SM CLR 11/05 A2998 RMK AO2 SLP148 T01060050
KSLN 230653Z AUTO 20010KT 10SM CLR 12/04 A3000 RMK AO2 SLP152 T01170044
KSLN 230553Z AUTO 19010KT 10SM CLR 11/04 A3001 RMK AO2 SLP156 T01110039 10172 20083 402280039 58014
KSLN 230453Z AUTO 18008KT 10SM CLR 11/03 A3003 RMK AO2 SLP166 T01060033
KSLN 230353Z 18006KT 10SM CLR 08/03 A3004 RMK AO2 SLP173 T00830033
KSLN 230253Z 18006KT 10SM CLR 10/03 A3005 RMK AO2 SLP176 T01000033 58005
KSLN 230153Z 18005KT 10SM CLR 11/03 A3006 RMK AO2 SLP180 T01060028
KSLN 230053Z 14004KT 10SM CLR 13/03 A3007 RMK AO2 SLP185 T01330028
KSLN 222353Z 17004KT 10SM CLR 17/02 A3007 RMK AO2 SLP181 T01720022 10228 20167 56009
KSLN 222253Z 26005KT 10SM CLR 22/M01 A3007 RMK AO2 SLP179 T02171011
KSLN 222153Z 24006KT 10SM CLR 22/M03 A3008 RMK AO2 SLP181 T02221028
KSLN 222053Z 26008KT 10SM CLR 22/M04 A3009 RMK AO2 SLP187 T02221039 56024
KSLN 221953Z VRB05KT 10SM CLR 22/M04 A3011 RMK AO2 SLP191 T02221039
KSLN 221902Z 28009KT 10SM CLR 22/M03 A3013 RMK AO2 T02171033
KSLN 221853Z 25009KT 5SM HZ CLR 22/M03 A3014 RMK AO2 SLP200 T02171028
KSLN 221753Z 25005KT 10SM CLR 20/01 A3017 RMK AO2 SLP211 T02000006 10200 20039 58007
KSLN 221653Z 21003KT 10SM CLR 18/06 A3019 RMK AO2 SLP220 T01780056
KSLN 221637Z 22004KT 10SM CLR 17/07 A3019 RMK AO2 T01670067
KSLN 221553Z VRB03KT 10SM CLR 15/07 A3020 RMK AO2 SLP222 T01500067
KSLN 221453Z 31003KT 10SM CLR 11/06 A3019 RMK AO2 SLP223 T01110061 53010
KSLN 221353Z 00000KT 10SM CLR 08/05 A3018 RMK AO2 SLP219 T00780050
KSLN 221253Z 21004KT 10SM CLR 06/03 A3017 RMK AO2 SLP215 T00560033
KSLN 221153Z 00000KT 10SM CLR 06/04 A3016 RMK AO2 SLP211 T00610039 10117 20056 51024
KSLN 221053Z AUTO 00000KT 10SM CLR 07/04 A3015 RMK AO2 SLP207 T00670039
KSLN 220953Z AUTO 28007KT 10SM CLR 07/04 A3011 RMK AO2 SLP192 T00720044
KSLN 220853Z AUTO 26005KT 10SM CLR 08/04 A3008 RMK AO2 SLP183 T00830044 53019
KSLN 220753Z AUTO 30005KT 10SM CLR 09/06 A3006 RMK AO2 SLP175 T00940056
KSLN 220653Z AUTO 28006KT 10SM CLR 11/06 A3004 RMK AO2 SLP168 T01060061
KSLN 220553Z AUTO 33006KT 10SM CLR 12/07 A3003 RMK AO2 SLP162 T01170067 10189 20117 402390117 50009
KSLN 220453Z AUTO 35006KT 10SM CLR 13/06 A3004 RMK AO2 SLP164 T01280061
KSLN 220353Z 01010KT 10SM CLR 14/05 A3002 RMK AO2 SLP159 T01390050